Rife, Pennsylvania
Current Conditions -  °F | °C
As of 4:16 AM on Friday 19 Dec 2014 (Local Time) from KSEG Reporting Station
Overcast Overcast  
Wind Chill: 30°   Ceiling: 3200
Heat Index: 35°   Visibility: 10mi
Dew Point: 24°   Wind: 6mph
Humidity: 64%   Direction: 270°W
Pressure: 30.05"   Gusts: NA
Location:  40.5877°N, 76.8837°W
Report Text: KSEG 190916Z AUTO 27005KT 10SM OVC032 02/M04 A3005 RMK AO2 T00171044
Loading
Personal Weather Stations






























Interactive Weather Map New forecast layout! Learn more

10-Day Weather Forecast

Advertisements
Track Severe Weather on mobile